This is the latest recevied weather packets stored in our database for station/object EA1GCN-10. If no packets are shown the sender has not sent any weather packets the latest 10 day(s).
| Time | Temp. | Humidity | Pressure | Rain* | Wind** | Luminosity | Snow |
|---|---|---|---|---|---|---|---|
| 1778098322 | 20° C | 55% | 1014 hPa | - | - | - | - |
| 1778096522 | 20.56° C | 54% | 1014 hPa | - | - | - | - |
| 1778094722 | 20.56° C | 52% | 1014 hPa | - | - | - | - |
| 1778092921 | 21.11° C | 50% | 1014 hPa | - | - | - | - |
| 1778091121 | 21.11° C | 48% | 1014 hPa | - | - | - | - |
| 1778089321 | 21.11° C | 48% | 1014 hPa | - | - | - | - |
| 1778087521 | 20.56° C | 50% | 1014 hPa | - | - | - | - |
| 1778085721 | 21.11° C | 47% | 1014 hPa | - | - | - | - |
| 1778083921 | 21.11° C | 45% | 1014 hPa | - | - | - | - |
| 1778082121 | 21.11° C | 45% | 1014 hPa | - | - | - | - |
| 1778080320 | 23.33° C | 39% | 1014 hPa | - | - | - | - |
| 1778078519 | 25° C | 37% | 1014 hPa | - | - | - | - |
| 1778076719 | 22.22° C | 43% | 1014 hPa | - | - | - | - |
| 1778074919 | 22.22° C | 43% | 1014 hPa | - | - | - | - |
| 1778073119 | 22.22° C | 42% | 1015 hPa | - | - | - | - |
| 1778071319 | 23.89° C | 39% | 1015 hPa | - | - | - | - |
| 1778069519 | 23.33° C | 39% | 1015 hPa | - | - | - | - |
| 1778067719 | 21.67° C | 44% | 1015 hPa | - | - | - | - |
| 1778065919 | 21.11° C | 48% | 1015 hPa | - | - | - | - |
| 1778064119 | 20° C | 49% | 1015 hPa | - | - | - | - |
| 1778062318 | 19.44° C | 50% | 1015 hPa | - | - | - | - |
| 1778060518 | 18.89° C | 48% | 1015 hPa | - | - | - | - |
| 1778058718 | 18.33° C | 53% | 1015 hPa | - | - | - | - |
| 1778056918 | 17.78° C | 53% | 1015 hPa | - | - | - | - |
| 1778055118 | 17.22° C | 56% | 1015 hPa | - | - | - | - |
* Rain since midnight (hover to see other rain measurements)
** Current wind speed in m/s (hover to see current wind gust speed)